createdAt,value
2022-09-22T00:01:37.434Z,99755.73
2022-09-22T00:04:08.375Z,99755.38
2022-09-22T00:06:39.832Z,99762.00
2022-09-22T00:09:12.248Z,99761.30
2022-09-22T00:11:44.180Z,99764.27
2022-09-22T00:14:16.859Z,99765.83
2022-09-22T00:16:47.798Z,99764.61
2022-09-22T00:19:19.863Z,99765.13
2022-09-22T00:21:48.462Z,99767.73
2022-09-22T00:24:18.975Z,99765.48
2022-09-22T00:26:47.251Z,99764.77
2022-09-22T00:29:17.434Z,99765.46
2022-09-22T00:31:45.909Z,99764.05
2022-09-22T00:34:17.301Z,99764.05
2022-09-22T00:36:46.294Z,99764.56
2022-09-22T00:39:16.162Z,99760.73
2022-09-22T00:41:49.197Z,99764.39
2022-09-22T00:44:41.331Z,99763.37
2022-09-22T00:47:18.823Z,99762.48
2022-09-22T00:50:12.904Z,99764.04
2022-09-22T00:52:46.711Z,99763.33
2022-09-22T00:55:53.798Z,99764.02
2022-09-22T00:58:30.162Z,99764.02
2022-09-22T01:00:58.679Z,99761.05
2022-09-22T01:03:30.085Z,99762.26
2022-09-22T01:06:01.974Z,99762.61
2022-09-22T01:08:31.727Z,99758.73
2022-09-22T01:11:01.169Z,99762.55
2022-09-22T01:13:32.416Z,99763.08
2022-09-22T01:16:09.743Z,99762.60
2022-09-22T01:18:49.755Z,99767.11
2022-09-22T01:21:20.514Z,99765.69
2022-09-22T01:24:03.509Z,99761.66
2022-09-22T01:26:58.820Z,99759.76
2022-09-22T01:29:38.770Z,99761.33
2022-09-22T01:32:17.379Z,99760.64
2022-09-22T01:35:25.706Z,99757.38
2022-09-22T01:38:04.833Z,99758.06
2022-09-22T01:40:48.925Z,99758.20
2022-09-22T01:43:49.616Z,99755.73
2022-09-22T01:46:35.738Z,99752.95
2022-09-22T01:49:08.793Z,99751.39
2022-09-22T01:51:51.310Z,99751.39
2022-09-22T01:54:42.010Z,99749.13
2022-09-22T01:57:26.057Z,99747.20
2022-09-22T02:00:01.806Z,99749.83
2022-09-22T02:02:35.878Z,99749.48
2022-09-22T02:05:09.317Z,99751.79
2022-09-22T02:07:40.587Z,99752.14
2022-09-22T02:10:13.655Z,99751.23
2022-09-22T02:12:41.723Z,99750.88
2022-09-22T02:15:30.936Z,99755.40
2022-09-22T02:18:03.568Z,99754.70
2022-09-22T02:20:33.927Z,99754.02
2022-09-22T02:23:02.065Z,99751.75
2022-09-22T02:25:30.576Z,99752.30
2022-09-22T02:27:59.572Z,99753.88
2022-09-22T02:30:28.556Z,99750.05
2022-09-22T02:32:57.935Z,99750.06
2022-09-22T02:35:30.205Z,99752.15
2022-09-22T02:38:10.054Z,99750.77
2022-09-22T02:40:56.761Z,99751.46
2022-09-22T02:43:36.813Z,99748.34
2022-09-22T02:46:33.388Z,99748.66
2022-09-22T02:49:07.157Z,99743.63
2022-09-22T02:51:35.836Z,99746.41
2022-09-22T02:54:04.532Z,99742.42
2022-09-22T02:56:33.829Z,99744.84
2022-09-22T02:59:01.900Z,99747.09
2022-09-22T03:01:30.114Z,99748.64
2022-09-22T03:03:58.145Z,99748.61
2022-09-22T03:06:26.215Z,99749.63
2022-09-22T03:08:54.392Z,99746.50
2022-09-22T03:11:22.462Z,99750.86
2022-09-22T03:13:50.534Z,99751.91
2022-09-22T03:16:18.708Z,99751.91
2022-09-22T03:18:46.882Z,99747.55
2022-09-22T03:21:15.467Z,99748.94
2022-09-22T03:23:43.733Z,99750.33
2022-09-22T03:26:11.812Z,99750.69
2022-09-22T03:28:39.882Z,99751.05
2022-09-22T03:31:08.115Z,99752.09
2022-09-22T03:33:36.331Z,99747.38
2022-09-22T03:36:05.886Z,99746.67
2022-09-22T03:38:34.010Z,99744.58
2022-09-22T03:41:03.108Z,99746.48
2022-09-22T03:43:31.177Z,99740.91
2022-09-22T03:46:01.058Z,99743.70
2022-09-22T03:48:30.018Z,99745.79
2022-09-22T03:50:58.568Z,99742.64
2022-09-22T03:53:26.944Z,99742.80
2022-09-22T03:56:08.374Z,99740.86
2022-09-22T03:58:37.628Z,99742.63
2022-09-22T04:01:07.467Z,99743.86
2022-09-22T04:03:36.052Z,99745.96
2022-09-22T04:06:05.451Z,99749.45
2022-09-22T04:08:33.701Z,99743.88
2022-09-22T04:11:02.082Z,99749.27
2022-09-22T04:13:30.152Z,99751.02
2022-09-22T04:15:58.530Z,99750.69
2022-09-22T04:18:26.699Z,99750.33
2022-09-22T04:20:58.902Z,99747.36
2022-09-22T04:23:27.366Z,99752.57
2022-09-22T04:25:55.526Z,99751.36
2022-09-22T04:28:23.803Z,99749.78
2022-09-22T04:30:51.917Z,99752.74
2022-09-22T04:33:20.663Z,99750.85
2022-09-22T04:35:49.846Z,99751.70
2022-09-22T04:38:18.512Z,99758.15
2022-09-22T04:40:46.891Z,99756.23
2022-09-22T04:43:15.200Z,99753.27
2022-09-22T04:45:47.341Z,99752.92
2022-09-22T04:48:16.830Z,99759.89
2022-09-22T04:50:48.048Z,99761.79
2022-09-22T04:53:16.598Z,99759.33
2022-09-22T04:55:44.663Z,99762.48
2022-09-22T04:58:14.174Z,99765.95
2022-09-22T05:00:42.451Z,99765.95
2022-09-22T05:03:13.310Z,99764.38
2022-09-22T05:05:41.562Z,99764.56
2022-09-22T05:08:10.534Z,99768.39
2022-09-22T05:10:38.729Z,99772.23
2022-09-22T05:13:07.416Z,99774.65
2022-09-22T05:15:35.596Z,99778.81
2022-09-22T05:18:03.765Z,99785.08
2022-09-22T05:20:31.839Z,99785.95
2022-09-22T05:23:00.215Z,99789.95
2022-09-22T05:25:28.387Z,99795.84
2022-09-22T05:27:56.969Z,99795.82
2022-09-22T05:30:27.297Z,99792.84
2022-09-22T05:32:55.571Z,99795.77
2022-09-22T05:35:25.133Z,99801.48
2022-09-22T05:37:54.100Z,99803.22
2022-09-22T05:40:24.352Z,99804.23
2022-09-22T05:42:53.901Z,99803.35
2022-09-22T05:45:22.381Z,99805.27
2022-09-22T05:47:51.143Z,99811.20
2022-09-22T05:50:21.116Z,99808.77
2022-09-22T05:52:49.152Z,99809.06
2022-09-22T05:55:17.429Z,99812.55
2022-09-22T05:57:45.499Z,99816.02
2022-09-22T06:00:14.325Z,99816.38
2022-09-22T06:02:45.208Z,99812.91
2022-09-22T06:05:17.265Z,99814.17
2022-09-22T06:07:47.912Z,99814.16
2022-09-22T06:10:15.995Z,99816.56
2022-09-22T06:12:44.064Z,99817.92
2022-09-22T06:15:12.138Z,99822.64
2022-09-22T06:17:40.207Z,99825.42
2022-09-22T06:20:09.294Z,99822.13
2022-09-22T06:22:37.578Z,99821.95
2022-09-22T06:25:09.266Z,99822.10
2022-09-22T06:27:37.509Z,99822.97
2022-09-22T06:30:07.928Z,99828.35
2022-09-22T06:32:39.490Z,99830.83
2022-09-22T06:35:08.393Z,99834.54
2022-09-22T06:37:38.813Z,99836.98
2022-09-22T06:40:09.335Z,99835.61
2022-09-22T06:42:39.865Z,99839.09
2022-09-22T06:45:09.094Z,99837.52
2022-09-22T06:47:37.135Z,99838.41
2022-09-22T06:50:06.111Z,99832.17
2022-09-22T06:52:37.261Z,99832.36
2022-09-22T06:55:07.363Z,99835.30
2022-09-22T06:57:35.464Z,99834.44
2022-09-22T07:00:04.663Z,99838.57
2022-09-22T07:02:32.832Z,99843.27
2022-09-22T07:05:00.903Z,99838.92
2022-09-22T07:07:32.186Z,99835.64
2022-09-22T07:10:00.325Z,99836.02
2022-09-22T07:12:28.798Z,99840.39
2022-09-22T07:14:58.309Z,99840.73
2022-09-22T07:17:26.584Z,99840.56
2022-09-22T07:19:56.501Z,99841.98
2022-09-22T07:22:24.572Z,99841.48
2022-09-22T07:24:52.643Z,99841.28
2022-09-22T07:27:21.021Z,99841.63
2022-09-22T07:29:49.195Z,99845.10
2022-09-22T07:32:18.802Z,99847.20
2022-09-22T07:34:47.592Z,99848.98
2022-09-22T07:37:16.172Z,99849.88
2022-09-22T07:39:45.869Z,99842.77
2022-09-22T07:42:14.055Z,99845.55
2022-09-22T07:45:00.765Z,99845.22
2022-09-22T07:47:47.473Z,99842.77
2022-09-22T07:50:17.592Z,99845.40
2022-09-22T07:52:52.527Z,99848.92
2022-09-22T07:55:25.512Z,99845.45
2022-09-22T07:57:58.397Z,99854.35
2022-09-22T08:00:33.305Z,99852.98
2022-09-22T08:03:01.706Z,99850.37
2022-09-22T08:05:30.189Z,99850.56
2022-09-22T08:07:58.770Z,99849.35
2022-09-22T08:10:26.814Z,99846.26
2022-09-22T08:12:58.291Z,99842.43
2022-09-22T08:15:27.519Z,99841.23
2022-09-22T08:17:58.454Z,99842.48
2022-09-22T08:20:29.396Z,99840.07
2022-09-22T08:23:05.835Z,99840.26
2022-09-22T08:25:34.624Z,99839.20
2022-09-22T08:28:03.288Z,99840.11
2022-09-22T08:30:31.423Z,99842.73
2022-09-22T08:33:00.870Z,99846.05
2022-09-22T08:35:29.161Z,99847.09
2022-09-22T08:37:57.232Z,99846.03
2022-09-22T08:40:25.363Z,99850.93
2022-09-22T08:42:54.604Z,99846.40
2022-09-22T08:45:37.216Z,99845.36
2022-09-22T08:48:40.207Z,99848.87
2022-09-22T08:51:37.359Z,99848.70
2022-09-22T08:54:06.863Z,99845.73
2022-09-22T08:57:02.890Z,99848.70
2022-09-22T08:59:39.155Z,99852.54
2022-09-22T09:02:43.983Z,99858.29
2022-09-22T09:05:46.357Z,99857.95
2022-09-22T09:08:35.221Z,99855.85
2022-09-22T09:14:06.701Z,99856.73
2022-09-22T09:16:58.829Z,99860.04
2022-09-22T09:19:29.665Z,99854.11
2022-09-22T09:22:02.547Z,99851.66
2022-09-22T09:27:41.086Z,99851.67
2022-09-22T09:30:18.269Z,99850.98
2022-09-22T09:32:54.007Z,99849.07
2022-09-22T09:35:26.898Z,99849.95
2022-09-22T09:38:01.529Z,99845.95
2022-09-22T09:40:30.088Z,99847.52
2022-09-22T09:43:04.535Z,99848.39
2022-09-22T09:46:03.457Z,99846.64
2022-09-22T09:48:41.329Z,99852.92
2022-09-22T09:51:14.008Z,99854.49
2022-09-22T09:53:46.380Z,99855.89
2022-09-22T09:56:28.687Z,99854.83
2022-09-22T09:59:16.827Z,99851.36
2022-09-22T10:01:48.214Z,99854.14
2022-09-22T10:04:19.934Z,99851.70
2022-09-22T10:06:49.133Z,99852.23
2022-09-22T10:09:25.396Z,99849.44
2022-09-22T10:12:02.675Z,99849.43
2022-09-22T10:14:34.440Z,99851.34
2022-09-22T10:17:04.252Z,99853.43
2022-09-22T10:19:34.897Z,99853.95
2022-09-22T10:22:24.868Z,99851.86
2022-09-22T10:25:04.896Z,99846.95
2022-09-22T10:27:32.943Z,99845.20
2022-09-22T10:30:13.089Z,99840.33
2022-09-22T10:32:41.708Z,99840.13
2022-09-22T10:35:29.768Z,99842.73
2022-09-22T10:38:04.171Z,99844.00
2022-09-22T10:40:32.325Z,99838.59
2022-09-22T10:43:01.151Z,99842.27
2022-09-22T10:45:48.159Z,99843.65
2022-09-22T10:48:26.709Z,99841.73
2022-09-22T10:51:31.311Z,99837.18
2022-09-22T10:54:19.454Z,99835.25
2022-09-22T10:56:53.566Z,99835.95
2022-09-22T10:59:35.218Z,99836.66
2022-09-22T11:02:34.662Z,99834.21
2022-09-22T11:05:59.771Z,99832.82
2022-09-22T11:08:51.497Z,99827.23
2022-09-22T11:11:59.000Z,99821.99
2022-09-22T11:14:45.802Z,99824.09
2022-09-22T11:17:45.322Z,99822.34
2022-09-22T11:20:13.998Z,99817.10
2022-09-22T11:22:49.135Z,99817.45
2022-09-22T11:25:57.450Z,99814.99
2022-09-22T11:28:56.935Z,99813.06
2022-09-22T11:31:59.640Z,99811.31
2022-09-22T11:34:37.541Z,99803.65
2022-09-22T11:37:37.464Z,99803.81
2022-09-22T11:40:08.322Z,99804.51
2022-09-22T11:42:45.172Z,99802.23
2022-09-22T11:45:48.568Z,99797.49
2022-09-22T11:48:58.938Z,99794.30
2022-09-22T11:51:52.708Z,99792.34
2022-09-22T11:55:01.978Z,99790.20
2022-09-22T11:57:36.776Z,99789.30
2022-09-22T12:00:17.599Z,99788.22
2022-09-22T12:02:55.169Z,99784.20
2022-09-22T12:05:30.364Z,99782.11
2022-09-22T12:08:26.404Z,99781.39
2022-09-22T12:10:56.627Z,99776.83
2022-09-22T12:13:31.354Z,99776.27
2022-09-22T12:16:09.877Z,99775.05
2022-09-22T12:18:58.837Z,99775.00
2022-09-22T12:21:48.202Z,99771.85
2022-09-22T12:24:16.581Z,99773.06
2022-09-22T12:26:47.521Z,99775.36
2022-09-22T12:29:15.488Z,99775.04
2022-09-22T12:31:48.658Z,99775.90
2022-09-22T12:34:35.182Z,99773.98
2022-09-22T12:37:32.384Z,99773.46
2022-09-22T12:40:18.962Z,99774.16
2022-09-22T12:42:52.849Z,99771.88
2022-09-22T12:45:43.484Z,99769.92
2022-09-22T12:48:18.483Z,99765.89
2022-09-22T12:50:46.657Z,99763.91
2022-09-22T12:53:26.683Z,99767.00
2022-09-22T12:55:58.499Z,99764.34
2022-09-22T12:58:29.303Z,99759.25
2022-09-22T13:01:32.788Z,99760.67
2022-09-22T13:04:16.948Z,99757.02
2022-09-22T13:06:44.929Z,99753.15
2022-09-22T13:09:24.450Z,99751.94
2022-09-22T13:12:11.784Z,99748.48
2022-09-22T13:15:07.403Z,99750.94
2022-09-22T13:17:43.563Z,99751.70
2022-09-22T13:20:35.289Z,99753.46
2022-09-22T13:23:13.125Z,99753.65
2022-09-22T13:25:44.846Z,99750.52
2022-09-22T13:28:15.117Z,99754.36
2022-09-22T13:30:45.413Z,99752.95
2022-09-22T13:33:18.480Z,99755.04
2022-09-22T13:35:46.964Z,99749.10
2022-09-22T13:38:15.470Z,99747.17
2022-09-22T13:40:50.025Z,99744.20
2022-09-22T13:43:32.781Z,99746.16
2022-09-22T13:46:02.943Z,99747.73
2022-09-22T13:48:37.935Z,99744.42
2022-09-22T13:51:11.639Z,99742.19
2022-09-22T13:53:51.694Z,99741.86
2022-09-22T13:56:23.756Z,99739.41
2022-09-22T13:58:57.306Z,99736.29
2022-09-22T14:01:28.244Z,99737.70
2022-09-22T14:03:56.827Z,99732.98
2022-09-22T14:06:28.841Z,99733.33
2022-09-22T14:08:58.040Z,99731.92
2022-09-22T14:11:32.466Z,99730.69
2022-09-22T14:14:02.098Z,99730.29
2022-09-22T14:16:51.868Z,99725.35
2022-09-22T14:19:43.778Z,99723.23
2022-09-22T14:22:37.654Z,99729.00
2022-09-22T14:25:22.827Z,99734.80
2022-09-22T14:27:55.718Z,99735.53
2022-09-22T14:30:31.367Z,99735.41
2022-09-22T14:33:03.539Z,99739.81
2022-09-22T14:35:32.932Z,99737.55
2022-09-22T14:38:16.338Z,99729.84
2022-09-22T14:40:58.972Z,99732.30
2022-09-22T14:43:42.584Z,99730.21
2022-09-22T14:46:41.941Z,99733.02
2022-09-22T14:49:36.710Z,99734.09
2022-09-22T14:52:15.329Z,99732.19
2022-09-22T14:54:44.758Z,99732.38
2022-09-22T14:57:16.694Z,99734.13
2022-09-22T15:00:10.833Z,99728.85
2022-09-22T15:02:41.705Z,99729.20
2022-09-22T15:05:11.870Z,99729.15
2022-09-22T15:07:48.511Z,99730.22
2022-09-22T15:10:19.349Z,99727.67
2022-09-22T15:12:49.770Z,99727.27
2022-09-22T15:15:31.877Z,99730.40
2022-09-22T15:18:19.104Z,99726.59
2022-09-22T15:21:00.256Z,99724.70
2022-09-22T15:23:45.042Z,99718.77
2022-09-22T15:26:25.439Z,99725.08
2022-09-22T15:28:57.980Z,99719.28
2022-09-22T15:31:29.851Z,99720.19
2022-09-22T15:34:03.035Z,99716.50
2022-09-22T15:36:33.157Z,99712.81
2022-09-22T15:39:22.217Z,99706.34
2022-09-22T15:41:52.352Z,99697.42
2022-09-22T15:44:20.911Z,99698.13
2022-09-22T15:46:52.774Z,99707.91
2022-09-22T15:49:25.055Z,99714.90
2022-09-22T15:51:56.186Z,99719.79
2022-09-22T15:54:26.418Z,99721.73
2022-09-22T15:56:56.029Z,99715.80
2022-09-22T15:59:28.604Z,99721.23
2022-09-22T16:01:59.641Z,99721.45
2022-09-22T16:04:33.956Z,99723.23
2022-09-22T16:07:08.635Z,99723.10
2022-09-22T16:09:37.264Z,99720.55
2022-09-22T16:12:08.411Z,99721.98
2022-09-22T16:14:37.082Z,99722.73
2022-09-22T16:17:09.275Z,99723.65
2022-09-22T16:19:37.337Z,99725.59
2022-09-22T16:22:06.227Z,99730.68
2022-09-22T16:24:34.300Z,99729.15
2022-09-22T16:27:07.546Z,99732.46
2022-09-22T16:29:37.634Z,99730.19
2022-09-22T16:32:05.909Z,99733.00
2022-09-22T16:34:36.214Z,99731.09
2022-09-22T16:37:04.590Z,99730.23
2022-09-22T16:39:32.663Z,99734.06
2022-09-22T16:42:00.732Z,99740.02
2022-09-22T16:44:28.813Z,99743.17
2022-09-22T16:46:58.835Z,99738.14
2022-09-22T16:49:27.302Z,99743.55
2022-09-22T16:51:55.885Z,99747.56
2022-09-22T16:54:25.086Z,99747.06
2022-09-22T16:56:56.123Z,99754.93
2022-09-22T16:59:24.401Z,99758.27
2022-09-22T17:01:52.531Z,99760.73
2022-09-22T17:04:20.747Z,99760.02
2022-09-22T17:06:49.704Z,99763.17
2022-09-22T17:09:18.355Z,99767.02
2022-09-22T17:11:49.244Z,99768.95
2022-09-22T17:14:25.832Z,99776.45
2022-09-22T17:16:56.770Z,99786.75
2022-09-22T17:19:27.854Z,99790.08
2022-09-22T17:21:56.950Z,99796.90
2022-09-22T17:24:26.720Z,99803.36
2022-09-22T17:26:57.453Z,99806.84
2022-09-22T17:29:28.957Z,99797.95
2022-09-22T17:32:02.608Z,99792.72
2022-09-22T17:34:33.114Z,99791.84
2022-09-22T17:37:03.326Z,99794.27
2022-09-22T17:39:32.450Z,99790.09
2022-09-22T17:42:00.522Z,99785.39
2022-09-22T17:44:33.655Z,99786.27
2022-09-22T17:47:20.933Z,99782.95
2022-09-22T17:50:07.474Z,99783.48
2022-09-22T17:52:54.143Z,99777.54
2022-09-22T17:55:25.463Z,99783.30
2022-09-22T17:57:56.546Z,99791.84
2022-09-22T18:00:26.242Z,99794.83
2022-09-22T18:02:54.588Z,99795.68
2022-09-22T18:05:27.235Z,99803.19
2022-09-22T18:07:58.797Z,99804.05
2022-09-22T18:10:31.064Z,99811.04
2022-09-22T18:12:59.801Z,99812.42
2022-09-22T18:15:28.284Z,99817.31
2022-09-22T18:17:58.330Z,99817.66
2022-09-22T18:20:27.898Z,99817.14
2022-09-22T18:22:58.024Z,99814.70
2022-09-22T18:25:28.447Z,99814.69
2022-09-22T18:27:58.065Z,99816.80
2022-09-22T18:30:26.740Z,99815.40
2022-09-22T18:32:55.330Z,99812.44
2022-09-22T18:35:24.625Z,99815.92
2022-09-22T18:37:52.694Z,99815.23
2022-09-22T18:40:20.929Z,99816.61
2022-09-22T18:42:49.759Z,99820.81
2022-09-22T18:45:17.829Z,99819.94
2022-09-22T18:47:45.901Z,99818.20
2022-09-22T18:50:13.971Z,99815.58
2022-09-22T18:52:43.409Z,99812.42
2022-09-22T18:55:19.022Z,99817.66
2022-09-22T18:57:48.122Z,99818.20
2022-09-22T19:00:16.867Z,99817.14
2022-09-22T19:02:47.088Z,99820.11
2022-09-22T19:05:15.406Z,99822.03
2022-09-22T19:07:47.162Z,99822.03
2022-09-22T19:10:20.886Z,99822.20
2022-09-22T19:12:49.852Z,99821.85
2022-09-22T19:15:19.276Z,99820.27
2022-09-22T19:17:49.807Z,99815.20
2022-09-22T19:20:24.208Z,99810.84
2022-09-22T19:22:53.996Z,99807.88
2022-09-22T19:25:22.710Z,99809.95
2022-09-22T19:27:53.032Z,99806.83
2022-09-22T19:30:24.785Z,99805.95
2022-09-22T19:32:54.838Z,99805.79
2022-09-22T19:35:23.394Z,99805.77
2022-09-22T19:37:52.173Z,99803.34
2022-09-22T19:40:24.604Z,99801.77
2022-09-22T19:42:54.465Z,99801.24
2022-09-22T19:45:24.379Z,99796.18
2022-09-22T19:47:56.649Z,99797.21
2022-09-22T19:50:25.906Z,99798.95
2022-09-22T19:52:54.021Z,99801.05
2022-09-22T19:55:22.399Z,99802.27
2022-09-22T19:57:52.642Z,99802.61
2022-09-22T20:00:26.452Z,99804.35
2022-09-22T20:03:01.077Z,99803.48
2022-09-22T20:05:36.812Z,99806.11
2022-09-22T20:08:15.961Z,99800.01
2022-09-22T20:10:49.402Z,99802.79
2022-09-22T20:13:36.858Z,99807.67
2022-09-22T20:16:05.078Z,99807.32
2022-09-22T20:18:36.335Z,99809.41
2022-09-22T20:21:10.390Z,99810.80
2022-09-22T20:23:38.358Z,99810.79
2022-09-22T20:26:06.737Z,99806.23
2022-09-22T20:28:35.218Z,99802.59
2022-09-22T20:31:03.333Z,99804.84
2022-09-22T20:33:33.410Z,99802.75
2022-09-22T20:36:01.583Z,99799.09
2022-09-22T20:38:29.859Z,99797.33
2022-09-22T20:41:01.394Z,99798.71
2022-09-22T20:43:29.688Z,99792.08
2022-09-22T20:46:04.985Z,99795.20
2022-09-22T20:48:33.613Z,99792.59
2022-09-22T20:51:02.830Z,99794.00
2022-09-22T20:53:36.491Z,99793.11
2022-09-22T20:56:07.454Z,99796.77
2022-09-22T20:58:41.191Z,99798.68
2022-09-22T21:01:11.121Z,99799.89
2022-09-22T21:03:39.859Z,99797.45
2022-09-22T21:06:10.065Z,99797.80
2022-09-22T21:09:01.091Z,99799.90
2022-09-22T21:11:30.320Z,99800.79
2022-09-22T21:14:05.825Z,99799.39
2022-09-22T21:16:37.489Z,99797.66
2022-09-22T21:19:06.264Z,99794.70
2022-09-22T21:21:38.042Z,99791.73
2022-09-22T21:24:08.340Z,99792.77
2022-09-22T21:26:36.454Z,99787.70
2022-09-22T21:29:05.222Z,99789.45
2022-09-22T21:31:34.532Z,99788.95
2022-09-22T21:34:02.897Z,99791.40
2022-09-22T21:36:30.969Z,99788.77
2022-09-22T21:39:00.639Z,99786.52
2022-09-22T21:41:31.412Z,99786.69
2022-09-22T21:44:00.239Z,99783.72
2022-09-22T21:46:30.059Z,99782.50
2022-09-22T21:49:01.839Z,99787.39
2022-09-22T21:51:39.466Z,99786.52
2022-09-22T21:54:08.264Z,99784.43
2022-09-22T21:56:36.435Z,99786.31
2022-09-22T21:59:05.448Z,99782.30
2022-09-22T22:01:45.831Z,99785.10
2022-09-22T22:04:15.366Z,99784.75
2022-09-22T22:06:45.892Z,99783.71
2022-09-22T22:09:19.323Z,99784.41
2022-09-22T22:11:53.405Z,99781.80
2022-09-22T22:14:22.847Z,99779.70
2022-09-22T22:16:53.466Z,99781.45
2022-09-22T22:19:25.115Z,99779.16
2022-09-22T22:21:54.051Z,99778.65
2022-09-22T22:24:24.740Z,99774.82
2022-09-22T22:26:57.262Z,99773.08
2022-09-22T22:29:27.641Z,99769.26
2022-09-22T22:31:55.815Z,99770.13
2022-09-22T22:34:26.343Z,99765.42
2022-09-22T22:36:56.156Z,99768.56
2022-09-22T22:39:24.636Z,99768.73
2022-09-22T22:41:55.332Z,99766.64
2022-09-22T22:44:23.544Z,99767.87
2022-09-22T22:46:51.615Z,99772.05
2022-09-22T22:49:20.219Z,99768.41
2022-09-22T22:51:49.705Z,99765.96
2022-09-22T22:54:17.775Z,99760.55
2022-09-22T22:56:50.164Z,99757.93
2022-09-22T22:59:19.682Z,99752.02
2022-09-22T23:01:47.883Z,99750.95
2022-09-22T23:04:17.163Z,99745.88
2022-09-22T23:06:45.510Z,99743.45
2022-09-22T23:09:16.238Z,99741.54
2022-09-22T23:11:46.674Z,99742.91
2022-09-22T23:14:16.475Z,99741.86
2022-09-22T23:16:47.003Z,99735.77
2022-09-22T23:19:19.460Z,99737.16
2022-09-22T23:21:47.863Z,99741.19
2022-09-22T23:24:19.276Z,99739.98
2022-09-22T23:26:47.687Z,99739.79
2022-09-22T23:29:15.862Z,99740.83
2022-09-22T23:31:44.037Z,99736.81
2022-09-22T23:34:12.106Z,99733.48
2022-09-22T23:36:40.694Z,99734.15
2022-09-22T23:39:11.833Z,99736.77
2022-09-22T23:41:40.006Z,99731.89
2022-09-22T23:44:08.209Z,99734.67
2022-09-22T23:46:38.403Z,99733.98
2022-09-22T23:49:07.089Z,99729.13
2022-09-22T23:51:35.077Z,99728.45
2022-09-22T23:54:03.129Z,99729.45
2022-09-22T23:56:31.202Z,99729.27
2022-09-22T23:58:59.374Z,99731.01
